Time;durP1;ratioP1;P1;durP2;ratioP2;P2;SDS_P1;SDS_P2;PMS_P1;PMS_P2;Temp;Humidity;BMP_temperature;BMP_pressure;BME280_temperature;BME280_humidity;BME280_pressure;Samples;Min_cycle;Max_cycle;Signal;HPM_P1;HPM_P2
2022/05/23 00:02:16;;;;;;;13.00;6.77;;;;;;;16.84;62.49;100624.78;5026652;28;20040;-83
2022/05/23 00:04:42;;;;;;;12.20;6.60;;;;;;;16.82;62.03;100623.41;5024315;28;20025;-84
2022/05/23 00:07:14;;;;;;;13.20;7.00;;;;;;;16.75;64.70;100617.31;5023114;28;20720;-83
2022/05/23 00:09:40;;;;;;;13.73;7.03;;;;;;;16.68;63.87;100609.31;5022268;28;20180;-83
2022/05/23 00:12:06;;;;;;;13.13;6.80;;;;;;;16.64;64.35;100608.19;5021825;28;20120;-84
2022/05/23 00:14:32;;;;;;;14.13;6.90;;;;;;;16.62;64.36;100619.38;5040251;28;20954;-83
2022/05/23 00:16:58;;;;;;;12.17;7.03;;;;;;;16.54;64.07;100617.94;5024616;28;20042;-84
2022/05/23 00:19:24;;;;;;;11.63;6.53;;;;;;;16.50;64.64;100624.19;5002122;28;20071;-83
2022/05/23 00:21:50;;;;;;;12.63;7.30;;;;;;;16.38;64.65;100633.34;5022068;28;20029;-84
2022/05/23 00:24:18;;;;;;;12.90;7.00;;;;;;;16.47;64.91;100630.13;5022337;28;20078;-84
2022/05/23 00:26:46;;;;;;;13.17;6.80;;;;;;;16.44;65.61;100628.78;5023071;28;20366;-84
2022/05/23 00:29:12;;;;;;;11.77;6.50;;;;;;;16.51;63.92;100626.66;5017871;28;20148;-83
2022/05/23 00:35:17;;;;;;;13.27;6.53;;;;;;;16.57;64.65;100618.50;5006684;28;20029;-83
2022/05/23 00:37:07;;;;;;;11.07;6.45;;;;;;;16.54;64.02;100614.38;5024753;28;20059;-83
2022/05/23 00:39:32;;;;;;;11.50;6.13;;;;;;;16.56;63.83;100604.00;4990566;28;20029;-83
2022/05/23 00:44:41;;;;;;;10.15;6.53;;;;;;;16.63;65.19;100601.91;5023203;28;20175;-84
2022/05/23 00:47:25;;;;;;;11.23;5.80;;;;;;;16.62;64.49;100604.88;5025398;28;20068;-84
2022/05/23 00:49:51;;;;;;;12.20;6.10;;;;;;;16.46;65.15;100601.16;5024811;28;20036;-83
2022/05/23 00:52:28;;;;;;;10.10;5.80;;;;;;;16.57;64.66;100602.91;5024241;28;20521;-83
2022/05/23 00:54:58;;;;;;;13.03;5.80;;;;;;;16.57;64.66;100605.66;5023600;28;20049;-84
2022/05/23 00:57:33;;;;;;;11.23;6.07;;;;;;;16.39;64.12;100574.03;5023075;28;20030;-83
2022/05/23 01:00:01;;;;;;;12.67;6.30;;;;;;;16.46;64.72;100582.03;5019353;28;20029;-83
2022/05/23 01:02:29;;;;;;;11.70;5.67;;;;;;;16.48;64.43;100579.84;5019250;28;20043;-83
2022/05/23 01:04:54;;;;;;;12.07;5.93;;;;;;;16.50;64.82;100566.75;5020370;28;20060;-81
2022/05/23 01:07:20;;;;;;;10.27;6.00;;;;;;;16.41;65.03;100562.81;5019824;28;20112;-81
2022/05/23 01:09:45;;;;;;;11.07;5.63;;;;;;;16.43;65.27;100563.38;5002239;28;20041;-82
2022/05/23 01:12:10;;;;;;;15.17;5.70;;;;;;;16.36;64.95;100560.88;5019500;28;20042;-81
2022/05/23 01:14:54;;;;;;;14.40;5.50;;;;;;;16.38;63.76;100570.44;5003296;28;20041;-83
2022/05/23 01:17:20;;;;;;;12.50;5.27;;;;;;;16.33;63.82;100573.16;5019833;28;20040;-82
2022/05/23 01:19:46;;;;;;;12.43;5.67;;;;;;;16.31;64.07;100580.78;5018490;28;20037;-82
2022/05/23 01:22:35;;;;;;;10.30;5.40;;;;;;;16.30;63.84;100584.56;5020061;28;20045;-82
2022/05/23 01:25:28;;;;;;;9.43;5.53;;;;;;;16.27;63.73;100593.28;5018861;28;20037;-82
2022/05/23 01:27:54;;;;;;;11.47;5.60;;;;;;;16.19;63.70;100588.28;5021695;28;20025;-82
2022/05/23 01:30:20;;;;;;;12.53;5.83;;;;;;;16.19;64.00;100580.09;5020879;28;20087;-82
2022/05/23 01:32:46;;;;;;;12.70;6.00;;;;;;;16.13;64.47;100576.47;5017857;28;20076;-82
2022/05/23 01:35:12;;;;;;;11.50;5.77;;;;;;;16.11;64.49;100570.41;5019491;28;20132;-82
2022/05/23 01:37:38;;;;;;;12.03;5.37;;;;;;;16.05;64.56;100563.25;5019708;28;20021;-82
2022/05/23 01:40:07;;;;;;;11.63;5.60;;;;;;;16.04;64.70;100565.16;5020094;28;20545;-82
2022/05/23 01:42:32;;;;;;;11.33;5.93;;;;;;;16.00;64.79;100558.53;5017753;28;20649;-82
2022/05/23 01:44:57;;;;;;;11.17;5.83;;;;;;;15.97;65.06;100567.25;5001283;28;20033;-82
2022/05/23 01:47:23;;;;;;;10.93;5.83;;;;;;;15.95;64.97;100563.13;5021198;28;20075;-82
2022/05/23 01:49:48;;;;;;;12.07;6.07;;;;;;;15.92;64.99;100559.00;5022296;28;21534;-82
2022/05/23 01:52:14;;;;;;;11.40;6.00;;;;;;;15.89;65.02;100570.44;5021391;28;20044;-82
2022/05/23 01:54:39;;;;;;;12.03;6.27;;;;;;;15.84;65.23;100563.03;5023300;28;20561;-82
2022/05/23 01:57:07;;;;;;;11.03;5.97;;;;;;;15.83;65.66;100563.28;5023145;28;20037;-82
2022/05/23 02:02:17;;;;;;;12.95;6.15;;;;;;;15.76;65.52;100565.31;5022420;28;20195;-82
2022/05/23 02:04:43;;;;;;;12.03;6.00;;;;;;;15.75;65.90;100567.22;5000616;28;20038;-82
2022/05/23 02:07:08;;;;;;;10.43;6.30;;;;;;;15.73;66.43;100557.63;5023023;28;20736;-82
2022/05/23 02:09:35;;;;;;;11.50;6.60;;;;;;;15.73;67.02;100554.91;5022155;28;20131;-82
2022/05/23 02:12:01;;;;;;;10.10;6.13;;;;;;;15.65;66.91;100547.97;5023358;28;20504;-82
2022/05/23 02:14:26;;;;;;;10.87;6.57;;;;;;;15.68;68.42;100540.09;5021724;28;20060;-82
2022/05/23 02:16:52;;;;;;;12.90;7.20;;;;;;;15.57;69.79;100532.88;5021650;28;20440;-83
2022/05/23 02:19:18;;;;;;;10.77;6.60;;;;;;;15.55;70.39;100543.22;5022230;28;20057;-82
2022/05/23 02:21:43;;;;;;;10.13;6.50;;;;;;;15.47;69.19;100540.91;5009459;28;20065;-83
2022/05/23 02:24:09;;;;;;;10.90;6.40;;;;;;;15.45;69.21;100545.78;5023041;28;20108;-82
2022/05/23 02:26:34;;;;;;;15.57;6.83;;;;;;;15.41;68.81;100542.75;5023253;28;20033;-82
2022/05/23 02:29:01;;;;;;;14.80;6.67;;;;;;;15.42;69.64;100538.94;5020584;28;20170;-83
2022/05/23 02:31:27;;;;;;;11.77;7.00;;;;;;;15.44;69.92;100542.25;5021892;28;20036;-83
2022/05/23 02:33:52;;;;;;;10.83;6.70;;;;;;;15.35;69.66;100533.66;5021935;28;20473;-82
2022/05/23 02:36:18;;;;;;;12.57;6.33;;;;;;;15.41;69.77;100533.72;5022043;28;20040;-83
2022/05/23 02:38:43;;;;;;;12.37;7.10;;;;;;;15.35;70.25;100535.56;5021571;28;20029;-82
2022/05/23 02:41:09;;;;;;;12.07;6.90;;;;;;;15.34;69.15;100518.34;5021117;28;20045;-83
2022/05/23 02:43:34;;;;;;;12.87;6.97;;;;;;;15.36;68.92;100518.09;4983709;28;20492;-82
2022/05/23 02:45:59;;;;;;;12.17;6.67;;;;;;;15.33;68.58;100508.50;5005090;28;20579;-83
2022/05/23 02:48:25;;;;;;;10.70;6.60;;;;;;;15.34;68.41;100515.63;5000134;28;20033;-83
2022/05/23 02:50:50;;;;;;;14.93;7.20;;;;;;;15.29;68.58;100507.38;5021560;28;20057;-82
2022/05/23 02:53:16;;;;;;;13.67;6.67;;;;;;;15.28;68.78;100508.44;5004203;28;20075;-82
2022/05/23 02:55:41;;;;;;;13.37;6.97;;;;;;;15.26;68.44;100494.22;5021480;28;20032;-82
2022/05/23 02:58:10;;;;;;;13.33;7.50;;;;;;;15.24;68.78;100490.09;5022790;28;20039;-83
2022/05/23 03:00:36;;;;;;;13.77;6.83;;;;;;;15.23;69.05;100474.78;5016720;28;20082;-83
2022/05/23 03:03:02;;;;;;;13.13;7.10;;;;;;;15.19;68.74;100475.31;5019783;28;20051;-82
2022/05/23 03:05:30;;;;;;;11.77;7.23;;;;;;;15.19;69.09;100466.31;5003675;28;20045;-83
2022/05/23 03:07:56;;;;;;;14.17;7.47;;;;;;;15.20;69.46;100459.75;5020600;28;20538;-83
2022/05/23 03:10:21;;;;;;;11.93;6.97;;;;;;;15.23;70.87;100433.84;5008502;28;20033;-83
2022/05/23 03:12:47;;;;;;;14.97;7.60;;;;;;;15.19;69.43;100436.28;5021971;28;20037;-83
2022/05/23 03:15:12;;;;;;;13.87;7.30;;;;;;;15.12;69.83;100419.25;5003104;28;20045;-83
2022/05/23 03:17:39;;;;;;;13.03;7.43;;;;;;;15.08;70.11;100410.75;5021686;28;20041;-83
2022/05/23 03:20:06;;;;;;;13.93;7.63;;;;;;;15.09;70.19;100412.38;5021157;28;20021;-83
2022/05/23 03:28:00;;;;;;;13.18;8.05;;;;;;;15.00;70.66;100398.38;5022413;28;20187;-82
2022/05/23 03:30:26;;;;;;;14.53;7.73;;;;;;;15.01;70.73;100400.03;5022028;28;20033;-82
2022/05/23 03:32:51;;;;;;;13.90;7.73;;;;;;;14.97;70.66;100407.06;5022549;28;20037;-82
2022/05/23 03:35:17;;;;;;;14.53;8.23;;;;;;;14.99;70.91;100404.91;5020481;28;20029;-82
2022/05/23 03:37:42;;;;;;;12.00;7.80;;;;;;;14.96;71.08;100399.97;5020397;28;20114;-82
2022/05/23 03:40:09;;;;;;;12.67;7.93;;;;;;;14.90;71.21;100384.59;5019972;28;20095;-82
2022/05/23 03:42:35;;;;;;;13.97;8.27;;;;;;;14.92;71.62;100387.06;5021705;28;20053;-83
2022/05/23 03:45:01;;;;;;;14.60;8.17;;;;;;;14.89;71.75;100387.56;5020094;28;20029;-82
2022/05/23 03:47:26;;;;;;;13.63;8.17;;;;;;;14.89;71.77;100376.66;5003742;28;20037;-82
2022/05/23 03:49:51;;;;;;;15.30;8.40;;;;;;;14.83;73.15;100367.59;5019536;28;20672;-83
2022/05/23 03:52:17;;;;;;;13.73;8.80;;;;;;;14.74;74.48;100372.66;5021246;28;20545;-82
2022/05/23 03:54:42;;;;;;;15.00;8.53;;;;;;;14.73;74.15;100372.88;5020138;28;20629;-83
2022/05/23 03:57:08;;;;;;;13.90;8.43;;;;;;;14.74;73.99;100369.09;5020103;28;20029;-82
2022/05/23 03:59:33;;;;;;;14.60;8.27;;;;;;;14.74;73.85;100367.19;5021009;28;20939;-82
2022/05/23 04:01:59;;;;;;;13.00;8.47;;;;;;;14.74;73.97;100369.09;5021311;28;20037;-82
2022/05/23 04:04:29;;;;;;;14.00;9.23;;;;;;;14.74;75.44;100364.47;5003674;28;20055;-82
2022/05/23 04:07:04;;;;;;;14.50;9.13;;;;;;;14.75;76.00;100360.66;5019845;28;20030;-83
2022/05/23 04:09:30;;;;;;;13.37;8.93;;;;;;;14.77;76.41;100363.13;5019753;28;21473;-82
2022/05/23 04:11:59;;;;;;;13.97;9.47;;;;;;;14.74;77.74;100363.63;5019227;28;20037;-82
2022/05/23 04:14:26;;;;;;;14.80;9.30;;;;;;;14.74;77.52;100360.91;5021060;28;20033;-82
2022/05/23 04:16:52;;;;;;;14.43;9.13;;;;;;;14.81;77.32;100353.34;5021214;28;20031;-82
2022/05/23 04:19:19;;;;;;;15.97;8.70;;;;;;;14.81;75.11;100356.09;5018860;28;20041;-82
2022/05/23 04:21:45;;;;;;;17.10;9.27;;;;;;;14.79;74.81;100347.34;5020633;28;20045;-82
2022/05/23 04:24:12;;;;;;;16.17;8.63;;;;;;;14.87;75.10;100351.56;5018326;28;20497;-82
2022/05/23 04:26:38;;;;;;;14.17;8.57;;;;;;;14.89;74.97;100336.59;5020137;28;20041;-82
2022/05/23 04:29:06;;;;;;;14.83;9.60;;;;;;;14.91;74.80;100334.41;5020139;28;20033;-82
2022/05/23 04:31:33;;;;;;;14.47;9.03;;;;;;;14.90;75.46;100324.56;5002887;28;20033;-82
2022/05/23 04:36:43;;;;;;;16.80;9.55;;;;;;;15.00;74.40;100316.53;5020032;28;20040;-82
2022/05/23 04:39:08;;;;;;;17.23;9.50;;;;;;;15.02;74.48;100325.28;5020834;28;20037;-82
2022/05/23 04:41:34;;;;;;;15.60;9.13;;;;;;;15.04;74.28;100327.78;5019084;28;20064;-82
2022/05/23 04:44:00;;;;;;;16.93;9.23;;;;;;;15.08;74.10;100328.91;5019805;28;20100;-82
2022/05/23 04:46:27;;;;;;;14.30;9.37;;;;;;;15.09;74.27;100333.25;5019727;28;20699;-82
2022/05/23 04:51:37;;;;;;;19.08;9.55;;;;;;;15.12;74.31;100326.47;5019824;28;20041;-83
2022/05/23 04:54:03;;;;;;;16.67;9.30;;;;;;;15.17;74.31;100318.34;5019172;28;20045;-83
2022/05/23 04:56:29;;;;;;;12.63;9.20;;;;;;;15.19;74.74;100316.22;5002768;28;20109;-82
2022/05/23 04:58:55;;;;;;;17.50;9.90;;;;;;;15.22;74.78;100307.50;5020313;28;20110;-83
2022/05/23 05:01:21;;;;;;;15.13;9.97;;;;;;;15.24;75.09;100302.59;5018321;28;20433;-83
2022/05/23 05:03:47;;;;;;;15.23;9.37;;;;;;;15.25;74.52;100298.78;5019982;28;20453;-83
2022/05/23 05:06:13;;;;;;;15.60;10.30;;;;;;;15.30;74.93;100312.50;5019424;28;20037;-83
2022/05/23 05:08:38;;;;;;;16.67;10.00;;;;;;;15.32;74.81;100314.97;5018806;28;20705;-83
2022/05/23 05:11:04;;;;;;;14.67;9.67;;;;;;;15.31;74.78;100305.97;5024857;28;20476;-83
2022/05/23 05:13:32;;;;;;;18.80;9.60;;;;;;;15.36;74.89;100306.00;5022547;28;20079;-83
2022/05/23 05:16:02;;;;;;;14.97;9.47;;;;;;;15.39;74.80;100299.22;5030606;28;21401;-83
2022/05/23 05:18:28;;;;;;;14.40;9.23;;;;;;;15.44;74.67;100290.25;5018290;28;20025;-83
2022/05/23 05:20:54;;;;;;;13.10;9.27;;;;;;;15.47;74.76;100289.75;5018231;28;20091;-83
2022/05/23 05:23:20;;;;;;;17.87;10.20;;;;;;;15.49;74.34;100279.38;5020530;28;20040;-83
2022/05/23 05:25:45;;;;;;;14.37;9.10;;;;;;;15.60;74.77;100272.09;4989878;28;20539;-83
2022/05/23 05:28:11;;;;;;;15.57;9.23;;;;;;;15.61;75.09;100258.22;5023241;28;20128;-83
2022/05/23 05:30:47;;;;;;;17.57;10.17;;;;;;;15.69;74.42;100263.19;5005874;28;20258;-83
2022/05/23 05:33:18;;;;;;;16.43;9.97;;;;;;;15.76;74.29;100256.69;5017744;28;20064;-83
2022/05/23 05:36:01;;;;;;;13.17;9.03;;;;;;;15.82;74.75;100259.22;5025827;28;20053;-82
2022/05/23 05:38:36;;;;;;;16.77;9.70;;;;;;;15.91;74.40;100256.00;5027603;28;20061;-83
2022/05/23 05:41:10;;;;;;;15.13;10.20;;;;;;;15.96;73.49;100242.38;5025686;28;20057;-83
2022/05/23 05:43:50;;;;;;;15.07;9.77;;;;;;;16.02;73.57;100246.81;5025764;28;20042;-83
2022/05/23 05:46:21;;;;;;;14.87;9.87;;;;;;;16.10;74.20;100245.47;5025944;28;20048;-83
2022/05/23 05:48:48;;;;;;;15.07;9.87;;;;;;;16.15;74.00;100248.25;5025495;28;20028;-83
2022/05/23 05:51:16;;;;;;;15.77;9.10;;;;;;;16.25;73.58;100245.59;5026407;28;20029;-83
2022/05/23 05:53:43;;;;;;;14.87;8.87;;;;;;;16.34;73.58;100238.50;5027247;28;20033;-83
2022/05/23 05:56:10;;;;;;;14.60;9.20;;;;;;;16.37;73.20;100226.22;5026580;28;20116;-83
2022/05/23 05:58:36;;;;;;;13.97;9.10;;;;;;;16.45;72.25;100222.16;5008973;28;20557;-83
2022/05/23 06:01:02;;;;;;;14.57;9.47;;;;;;;16.52;72.66;100223.59;5026002;28;20029;-83
2022/05/23 06:03:27;;;;;;;14.43;9.33;;;;;;;16.56;72.63;100218.38;5025821;28;20026;-83
2022/05/23 06:11:24;;;;;;;13.57;8.95;;;;;;;16.82;71.80;100216.56;5019185;28;20047;-80
2022/05/23 06:13:56;;;;;;;14.80;9.60;;;;;;;16.87;71.39;100218.50;5019629;28;20045;-80
2022/05/23 06:16:23;;;;;;;15.30;9.27;;;;;;;16.95;70.76;100220.72;5019171;28;20113;-80
2022/05/23 06:18:48;;;;;;;14.33;9.13;;;;;;;17.01;70.71;100218.81;5020616;28;20037;-83
2022/05/23 06:21:14;;;;;;;17.30;9.20;;;;;;;17.06;69.58;100227.06;5017466;28;20040;-83
2022/05/23 06:23:40;;;;;;;15.07;9.40;;;;;;;17.13;69.29;100213.94;5015154;28;20034;-85
2022/05/23 06:26:06;;;;;;;14.07;9.27;;;;;;;17.21;69.28;100212.56;4993593;28;20120;-90
2022/05/23 06:28:31;;;;;;;13.27;9.13;;;;;;;17.27;68.93;100210.66;5027780;28;20044;-90
2022/05/23 06:30:57;;;;;;;15.80;9.47;;;;;;;17.35;68.72;100208.22;5026298;28;20033;-90
2022/05/23 06:33:24;;;;;;;14.73;9.00;;;;;;;17.42;69.16;100213.44;5018579;28;20037;-83
2022/05/23 06:35:49;;;;;;;16.53;8.87;;;;;;;17.46;68.12;100202.72;5018543;28;20032;-83
2022/05/23 06:38:16;;;;;;;13.73;8.50;;;;;;;17.58;68.33;100206.00;4999704;28;20040;-84
2022/05/23 06:40:42;;;;;;;11.03;8.83;;;;;;;17.63;67.76;100197.00;5021355;28;20033;-84
2022/05/23 06:43:08;;;;;;;14.57;9.20;;;;;;;17.72;67.34;100190.69;5022928;28;20151;-84
2022/05/23 06:45:33;;;;;;;13.70;8.37;;;;;;;17.78;66.83;100183.28;5008571;28;20124;-84
2022/05/23 06:47:58;;;;;;;12.30;8.10;;;;;;;17.84;66.04;100181.34;5009490;28;20067;-83
2022/05/23 06:50:24;;;;;;;13.83;8.53;;;;;;;17.91;67.10;100184.63;5021978;28;20144;-84
2022/05/23 06:52:49;;;;;;;13.67;8.63;;;;;;;17.99;66.83;100184.09;5022727;28;20048;-84
2022/05/23 06:55:15;;;;;;;13.40;7.97;;;;;;;18.08;66.62;100170.63;5004187;28;20037;-84
2022/05/23 06:57:40;;;;;;;12.33;8.37;;;;;;;18.18;65.90;100178.84;5022338;28;20038;-83
2022/05/23 07:00:09;;;;;;;15.53;8.00;;;;;;;18.20;64.34;100173.06;5021896;28;20053;-84
2022/05/23 07:02:35;;;;;;;14.50;8.10;;;;;;;18.26;64.34;100176.59;5021224;28;20041;-82
2022/05/23 07:13:13;;;;;;;14.68;7.88;;;;;;;18.45;63.82;100179.56;5021924;28;20563;-83
2022/05/23 07:15:46;;;;;;;14.10;7.37;;;;;;;18.42;63.76;100177.38;5004464;28;20059;-82
2022/05/23 07:18:12;;;;;;;11.83;7.40;;;;;;;18.46;63.07;100184.75;5021880;28;20036;-83
2022/05/23 07:20:38;;;;;;;12.27;6.83;;;;;;;18.45;62.26;100185.03;5004345;28;20288;-82
2022/05/23 07:23:03;;;;;;;14.53;7.23;;;;;;;18.41;62.84;100179.28;4999958;28;20469;-83
2022/05/23 07:25:28;;;;;;;12.52;7.40;;;;;;;18.45;63.11;100180.34;5003802;28;20079;-82
2022/05/23 07:27:54;;;;;;;12.03;7.20;;;;;;;18.49;63.31;100175.16;5021287;28;20025;-82
2022/05/23 07:30:21;;;;;;;11.57;6.93;;;;;;;18.47;62.91;100169.94;5019805;28;20026;-82
2022/05/23 07:32:47;;;;;;;13.77;6.97;;;;;;;18.46;63.40;100154.59;5020290;28;20162;-82
2022/05/23 07:35:12;;;;;;;11.37;7.23;;;;;;;18.57;63.46;100163.59;5015206;28;20803;-82
2022/05/23 07:37:37;;;;;;;12.47;6.93;;;;;;;18.67;63.42;100174.50;5020149;28;20041;-82
2022/05/23 07:40:03;;;;;;;13.20;6.97;;;;;;;18.80;63.67;100175.81;5019478;28;20104;-83
2022/05/23 07:42:29;;;;;;;10.35;7.40;;;;;;;18.83;62.36;100163.44;5019820;28;20058;-82
2022/05/23 07:44:55;;;;;;;10.27;6.95;;;;;;;18.84;62.92;100170.56;5003514;28;20478;-82
2022/05/23 07:47:20;;;;;;;15.57;7.72;;;;;;;18.83;62.01;100177.97;5020512;28;20033;-83
2022/05/23 07:49:47;;;;;;;11.68;7.55;;;;;;;18.78;62.31;100174.44;5019890;28;20039;-83
2022/05/23 07:52:13;;;;;;;11.25;7.70;;;;;;;18.80;62.86;100164.81;4987497;28;20278;-82
2022/05/23 08:02:51;;;;;;;11.63;7.17;;;;;;;18.84;62.21;100154.09;5025546;28;20500;-87
2022/05/23 08:05:16;;;;;;;10.25;7.57;;;;;;;18.71;60.36;100150.91;5006688;28;20059;-88
2022/05/23 08:07:42;;;;;;;11.60;7.97;;;;;;;18.78;61.07;100156.06;5024975;28;20548;-89
2022/05/23 08:10:07;;;;;;;13.05;7.32;;;;;;;18.84;61.71;100162.34;5025585;28;20029;-88
2022/05/23 08:12:34;;;;;;;12.57;8.20;;;;;;;18.92;61.53;100155.44;5023512;28;20456;-88
2022/05/23 08:14:59;;;;;;;12.52;8.18;;;;;;;19.04;61.63;100151.25;5023418;28;20041;-88
2022/05/23 08:17:24;;;;;;;14.15;7.03;;;;;;;19.22;61.23;100143.44;5020894;28;20749;-88
2022/05/23 08:19:50;;;;;;;12.07;8.23;;;;;;;19.54;60.26;100140.13;5022576;28;20037;-88
2022/05/23 08:22:16;;;;;;;13.32;8.10;;;;;;;19.87;59.15;100132.13;5023187;28;20080;-88
2022/05/23 08:24:42;;;;;;;16.38;8.02;;;;;;;20.22;59.45;100126.50;5022631;28;20048;-88
2022/05/23 08:27:08;;;;;;;12.35;7.32;;;;;;;20.32;58.35;100131.88;5006603;28;20064;-88
2022/05/23 08:29:36;;;;;;;13.68;6.72;;;;;;;20.37;58.23;100120.81;5024027;28;20033;-88
2022/05/23 08:32:04;;;;;;;13.23;7.13;;;;;;;20.23;57.58;100120.69;5005563;28;20033;-88
2022/05/23 08:34:31;;;;;;;13.38;6.90;;;;;;;20.32;58.67;100106.31;5023312;28;20103;-88
2022/05/23 08:36:58;;;;;;;12.43;6.20;;;;;;;20.29;57.80;100115.13;5022800;28;20033;-88
2022/05/23 08:39:23;;;;;;;10.35;6.15;;;;;;;20.28;56.81;100114.34;5021018;28;20041;-87
2022/05/23 08:41:51;;;;;;;10.32;5.43;;;;;;;20.15;56.84;100117.78;5024934;28;20071;-88
2022/05/23 08:44:26;;;;;;;8.30;5.40;;;;;;;20.07;58.45;100114.59;5023919;28;20036;-88
2022/05/23 08:47:02;;;;;;;11.70;6.13;;;;;;;19.97;57.09;100109.19;5023844;28;20155;-88
2022/05/23 08:49:54;;;;;;;9.77;5.68;;;;;;;20.08;58.14;100105.22;5024515;28;20032;-88
2022/05/23 08:52:22;;;;;;;12.32;6.03;;;;;;;20.06;56.76;100101.94;5023041;28;20128;-88
2022/05/23 08:54:53;;;;;;;11.60;6.22;;;;;;;20.03;57.40;100091.53;5023033;28;20044;-88
2022/05/23 08:57:33;;;;;;;11.50;5.93;;;;;;;20.11;58.99;100086.50;5025073;28;20397;-88
2022/05/23 09:00:04;;;;;;;12.02;5.80;;;;;;;20.14;58.57;100092.25;5026801;28;20090;-89
2022/05/23 09:02:41;;;;;;;11.60;6.32;;;;;;;20.15;58.19;100082.84;5026016;28;20032;-88
2022/05/23 09:05:15;;;;;;;10.20;6.10;;;;;;;20.10;58.36;100076.59;5026595;28;20131;-88
2022/05/23 09:08:06;;;;;;;10.85;6.18;;;;;;;20.19;58.76;100083.09;5027159;28;20084;-87
2022/05/23 09:10:40;;;;;;;10.48;5.95;;;;;;;20.11;60.06;100079.06;5026029;28;20152;-87
2022/05/23 09:13:07;;;;;;;14.77;6.15;;;;;;;20.07;58.66;100078.00;5027608;28;20455;-87
2022/05/23 09:15:33;;;;;;;9.70;6.28;;;;;;;20.06;59.02;100060.69;5025084;28;20044;-87
2022/05/23 09:18:06;;;;;;;9.02;5.70;;;;;;;20.06;60.19;100055.19;5027116;28;20029;-88
2022/05/23 09:20:46;;;;;;;11.77;6.00;;;;;;;20.14;59.49;100052.91;5024889;28;20017;-88
2022/05/23 09:23:37;;;;;;;12.25;6.57;;;;;;;20.23;59.58;100051.94;5025155;28;20432;-88
2022/05/23 09:26:09;;;;;;;13.48;6.57;;;;;;;20.18;59.75;100032.78;5026914;28;20022;-88
2022/05/23 09:28:37;;;;;;;13.80;6.10;;;;;;;20.28;60.16;100037.31;5025856;28;20040;-83
2022/05/23 09:31:40;;;;;;;11.02;6.13;;;;;;;20.33;59.10;100029.00;5023682;28;20029;-82
2022/05/23 09:34:05;;;;;;;11.52;5.97;;;;;;;20.20;57.20;100025.03;5022661;28;20477;-82
2022/05/23 09:36:39;;;;;;;10.70;6.07;;;;;;;20.23;58.65;100023.63;5023851;28;20037;-82
2022/05/23 09:39:07;;;;;;;12.90;6.30;;;;;;;20.19;58.47;100026.13;5024239;28;20033;-82
2022/05/23 09:49:57;;;;;;;11.35;6.97;;;;;;;20.34;60.11;99992.09;5024360;28;20067;-82
2022/05/23 09:52:25;;;;;;;11.77;6.50;;;;;;;20.47;60.68;99985.03;5021574;28;20025;-83
2022/05/23 09:55:01;;;;;;;8.63;6.40;;;;;;;20.50;60.27;99989.94;5024083;28;20026;-83
2022/05/23 09:57:49;;;;;;;9.57;6.50;;;;;;;20.51;59.50;99980.56;5022691;28;20029;-82
2022/05/23 10:00:23;;;;;;;12.23;7.63;;;;;;;20.54;58.90;99971.69;5022436;28;20033;-83
2022/05/23 10:02:57;;;;;;;;;;;;;;;20.80;59.02;99976.00;5022714;28;20034;-83
2022/05/23 10:05:31;;;;;;;13.23;7.03;;;;;;;20.64;57.98;99965.22;5022251;28;20393;-82
2022/05/23 10:08:00;;;;;;;23.42;7.10;;;;;;;20.74;57.89;99962.31;5023273;28;20037;-83
2022/05/23 10:10:37;;;;;;;15.13;6.50;;;;;;;20.86;57.22;99969.28;5023370;28;20508;-83
2022/05/23 10:13:28;;;;;;;13.63;6.70;;;;;;;21.01;57.27;99969.03;5023374;28;20025;-83
2022/05/23 10:15:59;;;;;;;12.82;6.72;;;;;;;21.16;55.70;99956.06;5023680;28;20049;-83
2022/05/23 10:18:36;;;;;;;13.35;6.88;;;;;;;21.79;58.48;99954.56;5022712;28;20082;-83
2022/05/23 10:21:27;;;;;;;13.45;6.45;;;;;;;22.09;57.23;99953.03;5022606;28;20025;-83
2022/05/23 10:23:58;;;;;;;9.50;5.88;;;;;;;22.31;54.64;99954.19;5023616;28;20030;-83
2022/05/23 10:26:25;;;;;;;8.85;6.53;;;;;;;22.73;54.58;99954.84;5022978;28;20040;-83
2022/05/23 10:29:05;;;;;;;10.68;5.85;;;;;;;23.00;53.53;99943.94;5021566;28;20074;-83
2022/05/23 10:31:49;;;;;;;10.40;6.13;;;;;;;23.34;53.29;99948.84;5020878;28;20026;-82
2022/05/23 10:34:48;;;;;;;10.90;6.30;;;;;;;23.82;53.35;99957.41;5017358;28;20041;-83
2022/05/23 10:37:25;;;;;;;11.50;6.20;;;;;;;23.90;49.85;99956.63;5017703;28;20058;-83
2022/05/23 10:43:29;;;;;;;13.77;6.13;;;;;;;24.41;50.46;99951.44;5017329;28;20072;-83
2022/05/23 10:45:59;;;;;;;13.40;5.90;;;;;;;24.52;48.72;99943.59;5020410;28;20510;-83
2022/05/23 10:48:47;;;;;;;10.48;5.95;;;;;;;24.68;47.19;99943.94;5020949;28;20037;-83
2022/05/23 10:51:42;;;;;;;9.60;6.50;;;;;;;24.83;47.68;99937.84;5022069;28;20037;-83
2022/05/23 10:54:30;;;;;;;13.70;6.45;;;;;;;25.00;46.06;99927.88;5022639;28;20041;-83
2022/05/23 10:57:23;;;;;;;14.02;6.60;;;;;;;25.38;48.22;99919.56;5023354;28;20539;-83
2022/05/23 11:00:04;;;;;;;11.30;6.78;;;;;;;25.40;45.48;99903.44;5021762;28;20029;-83
2022/05/23 11:02:40;;;;;;;10.77;6.40;;;;;;;25.61;46.16;99892.34;5022327;28;20500;-83
2022/05/23 11:05:32;;;;;;;9.55;6.65;;;;;;;25.63;45.97;99889.25;5016343;28;20135;-83
2022/05/23 11:08:20;;;;;;;11.57;6.63;;;;;;;25.67;45.95;99883.84;5022070;28;20148;-83
2022/05/23 11:11:00;;;;;;;9.88;6.88;;;;;;;25.55;44.41;99879.00;5021499;28;20033;-84
2022/05/23 11:13:36;;;;;;;11.63;6.80;;;;;;;25.87;45.62;99883.03;5024754;28;20095;-80
2022/05/23 11:16:26;;;;;;;9.60;6.60;;;;;;;25.77;45.24;99873.16;5022351;28;20039;-80
2022/05/23 11:19:20;;;;;;;11.75;6.75;;;;;;;26.08;45.39;99849.75;5022804;28;20044;-80
2022/05/23 11:22:05;;;;;;;11.80;5.82;;;;;;;26.38;43.60;99843.22;5020984;28;20042;-79
2022/05/23 11:24:42;;;;;;;9.90;5.40;;;;;;;26.32;41.91;99831.53;5020757;28;20037;-80
2022/05/23 11:35:48;;;;;;;6.45;5.03;;;;;;;26.65;41.88;99790.97;5021556;28;20057;-80
2022/05/23 11:38:16;;;;;;;11.20;5.32;;;;;;;26.53;42.82;99783.44;5020798;28;20037;-79
2022/05/23 11:41:04;;;;;;;9.63;4.97;;;;;;;26.91;44.07;99776.75;5021419;28;20048;-80
2022/05/23 11:43:30;;;;;;;6.50;4.63;;;;;;;26.79;40.36;99774.78;5021475;28;20048;-79
2022/05/23 11:46:04;;;;;;;6.43;4.70;;;;;;;26.83;39.34;99778.47;5021815;28;20061;-79
2022/05/23 11:48:43;;;;;;;9.63;4.30;;;;;;;26.96;41.11;99777.31;5021981;28;20634;-79
2022/05/23 11:51:24;;;;;;;8.23;4.80;;;;;;;27.07;41.36;99777.66;5021993;28;20080;-79
2022/05/23 11:54:05;;;;;;;11.18;4.72;;;;;;;26.83;43.67;99761.81;5021836;28;20037;-79
2022/05/23 11:57:00;;;;;;;10.38;4.50;;;;;;;27.12;42.67;99768.28;5022238;28;21059;-80
2022/05/23 11:59:26;;;;;;;8.90;4.15;;;;;;;26.97;40.94;99761.47;5021753;28;20896;-79
2022/05/23 12:02:07;;;;;;;8.20;4.57;;;;;;;27.01;42.67;99756.81;5020984;28;20029;-79
2022/05/23 12:04:55;;;;;;;6.75;3.90;;;;;;;26.61;40.06;99743.63;5022629;28;20048;-81
2022/05/23 12:07:41;;;;;;;5.88;3.55;;;;;;;26.61;41.58;99749.16;5029453;28;20417;-79
2022/05/23 12:10:25;;;;;;;10.25;3.90;;;;;;;26.07;41.59;99756.53;5022240;28;20041;-79
2022/05/23 12:13:00;;;;;;;8.35;3.65;;;;;;;25.77;41.39;99736.38;5020461;28;20028;-79
2022/05/23 12:15:43;;;;;;;9.48;3.55;;;;;;;25.73;42.21;99733.50;5021724;28;20053;-79
2022/05/23 12:18:39;;;;;;;6.97;3.53;;;;;;;25.53;42.27;99728.81;5026647;28;20025;-83
2022/05/23 12:21:44;;;;;;;6.40;3.40;;;;;;;25.37;43.17;99736.94;5026131;28;20502;-83
2022/05/23 12:24:11;;;;;;;8.88;3.75;;;;;;;25.00;42.60;99748.56;5028872;28;20113;-83
2022/05/23 12:26:39;;;;;;;8.40;3.90;;;;;;;24.86;43.59;99739.69;5026135;28;20080;-83
2022/05/23 12:29:31;;;;;;;9.05;3.80;;;;;;;24.80;43.41;99732.72;5029773;28;20029;-83
2022/05/23 12:32:22;;;;;;;8.35;3.67;;;;;;;24.57;43.80;99738.53;5027245;28;20295;-83
2022/05/23 12:34:49;;;;;;;7.28;3.70;;;;;;;24.32;44.49;99732.78;5028018;28;20022;-83
2022/05/23 12:37:37;;;;;;;7.22;3.75;;;;;;;24.25;44.63;99727.75;5027398;28;20025;-83